createdAt,value
2022-10-15T00:00:21.992Z,95852.38
2022-10-15T00:00:54.121Z,95856.66
2022-10-15T00:01:26.287Z,95845.22
2022-10-15T00:01:58.434Z,95849.34
2022-10-15T00:02:30.237Z,95843.22
2022-10-15T00:03:02.104Z,95843.59
2022-10-15T00:03:36.765Z,95842.50
2022-10-15T00:04:08.681Z,95840.19
2022-10-15T00:04:40.557Z,95840.63
2022-10-15T00:05:12.348Z,95832.44
2022-10-15T00:05:44.297Z,95840.97
2022-10-15T00:06:19.380Z,95842.41
2022-10-15T00:06:51.434Z,95848.59
2022-10-15T00:07:23.504Z,95833.94
2022-10-15T00:07:55.832Z,95844.63
2022-10-15T00:08:27.682Z,95838.19
2022-10-15T00:08:59.550Z,95839.38
2022-10-15T00:09:32.025Z,95834.28
2022-10-15T00:10:04.266Z,95838.59
2022-10-15T00:10:37.905Z,95830.44
2022-10-15T00:11:13.292Z,95835.09
2022-10-15T00:11:45.199Z,95840.13
2022-10-15T00:12:17.400Z,95837.84
2022-10-15T00:12:49.174Z,95828.69
2022-10-15T00:13:21.019Z,95835.63
2022-10-15T00:13:57.855Z,95832.84
2022-10-15T00:14:29.770Z,95834.88
2022-10-15T00:15:05.247Z,95834.53
2022-10-15T00:15:38.765Z,95832.53
2022-10-15T00:16:16.875Z,95835.91
2022-10-15T00:16:48.754Z,95825.13
2022-10-15T00:17:20.721Z,95830.84
2022-10-15T00:17:52.732Z,95828.53
2022-10-15T00:18:24.536Z,95825.94
2022-10-15T00:18:58.851Z,95825.94
2022-10-15T00:19:30.731Z,95829.44
2022-10-15T00:20:05.934Z,95827.63
2022-10-15T00:20:41.869Z,95831.41
2022-10-15T00:21:16.298Z,95833.31
2022-10-15T00:21:48.273Z,95836.03
2022-10-15T00:22:20.612Z,95830.66
2022-10-15T00:22:52.756Z,95828.91
2022-10-15T00:23:24.782Z,95827.88
2022-10-15T00:23:56.969Z,95833.25
2022-10-15T00:24:28.895Z,95827.56
2022-10-15T00:25:00.839Z,95828.78
2022-10-15T00:25:32.671Z,95824.50
2022-10-15T00:26:10.797Z,95828.34
2022-10-15T00:26:42.555Z,95831.78
2022-10-15T00:27:14.480Z,95832.53
2022-10-15T00:27:46.544Z,95826.41
2022-10-15T00:28:18.510Z,95825.34
2022-10-15T00:28:52.033Z,95824.56
2022-10-15T00:29:27.676Z,95816.81
2022-10-15T00:30:03.187Z,95818.38
2022-10-15T00:30:35.213Z,95823.63
2022-10-15T00:31:10.632Z,95820.19
2022-10-15T00:31:42.614Z,95826.44
2022-10-15T00:32:14.549Z,95824.13
2022-10-15T00:32:46.423Z,95819.53
2022-10-15T00:33:18.298Z,95820.19
2022-10-15T00:33:53.490Z,95817.97
2022-10-15T00:34:25.716Z,95819.47
2022-10-15T00:34:57.955Z,95820.28
2022-10-15T00:35:29.974Z,95826.25
2022-10-15T00:36:06.564Z,95822.06
2022-10-15T00:36:38.425Z,95819.09
2022-10-15T00:37:10.622Z,95827.19
2022-10-15T00:37:44.253Z,95816.13
2022-10-15T00:38:16.292Z,95816.53
2022-10-15T00:38:49.427Z,95817.22
2022-10-15T00:39:21.313Z,95812.94
2022-10-15T00:39:53.238Z,95815.75
2022-10-15T00:40:25.283Z,95812.28
2022-10-15T00:40:58.684Z,95812.34
2022-10-15T00:41:35.154Z,95813.09
2022-10-15T00:42:06.915Z,95811.25
2022-10-15T00:42:39.088Z,95810.38
2022-10-15T00:43:11.807Z,95817.16
2022-10-15T00:43:55.196Z,95814.09
2022-10-15T00:44:30.074Z,95813.34
2022-10-15T00:45:01.935Z,95811.47
2022-10-15T00:45:33.802Z,95812.13
2022-10-15T00:46:12.785Z,95815.47
2022-10-15T00:46:44.658Z,95810.63
2022-10-15T00:47:28.575Z,95811.47
2022-10-15T00:48:03.930Z,95809.56
2022-10-15T00:48:35.813Z,95810.25
2022-10-15T00:49:17.746Z,95804.88
2022-10-15T00:50:05.440Z,95812.66
2022-10-15T00:50:37.550Z,95801.50
2022-10-15T00:51:09.848Z,95802.25
2022-10-15T00:51:46.966Z,95807.56
2022-10-15T00:52:40.982Z,95811.84
2022-10-15T00:53:12.871Z,95814.53
2022-10-15T00:53:45.487Z,95811.53
2022-10-15T00:54:19.725Z,95804.56
2022-10-15T00:55:01.269Z,95806.53
2022-10-15T00:55:36.918Z,95812.91
2022-10-15T00:56:08.980Z,95805.59
2022-10-15T00:56:44.115Z,95806.47
2022-10-15T00:57:16.159Z,95811.69
2022-10-15T00:57:50.168Z,95812.34
2022-10-15T00:58:28.349Z,95807.41
2022-10-15T00:59:01.018Z,95811.69
2022-10-15T00:59:36.945Z,95808.66
2022-10-15T01:00:15.062Z,95807.94
2022-10-15T01:00:47.145Z,95806.09
2022-10-15T01:01:19.091Z,95801.84
2022-10-15T01:01:51.204Z,95808.78
2022-10-15T01:02:23.631Z,95804.16
2022-10-15T01:02:55.697Z,95806.84
2022-10-15T01:03:27.756Z,95805.28
2022-10-15T01:04:02.628Z,95804.94
2022-10-15T01:04:34.757Z,95803.03
2022-10-15T01:05:08.339Z,95807.97
2022-10-15T01:05:43.119Z,95805.72
2022-10-15T01:06:16.527Z,95800.66
2022-10-15T01:06:48.313Z,95802.63
2022-10-15T01:07:20.214Z,95802.72
2022-10-15T01:07:52.140Z,95796.94
2022-10-15T01:08:24.154Z,95795.47
2022-10-15T01:08:56.925Z,95791.25
2022-10-15T01:09:34.003Z,95790.38
2022-10-15T01:10:10.618Z,95799.84
2022-10-15T01:11:02.220Z,95794.22
2022-10-15T01:11:37.081Z,95799.97
2022-10-15T01:12:20.116Z,95798.47
2022-10-15T01:13:02.907Z,95789.97
2022-10-15T01:14:08.797Z,95790.34
2022-10-15T01:14:55.976Z,95799.19
2022-10-15T01:15:49.597Z,95791.53
2022-10-15T01:16:39.841Z,95794.19
2022-10-15T01:17:24.023Z,95793.91
2022-10-15T01:18:20.082Z,95787.69
2022-10-15T01:19:07.680Z,95788.84
2022-10-15T01:19:57.974Z,95792.78
2022-10-15T01:20:50.959Z,95778.94
2022-10-15T01:21:48.086Z,95782.31
2022-10-15T01:22:59.573Z,95784.63
2022-10-15T01:24:15.878Z,95777.25
2022-10-15T01:24:56.914Z,95788.84
2022-10-15T01:25:28.932Z,95780.00
2022-10-15T01:26:19.499Z,95781.16
2022-10-15T01:27:02.881Z,95783.84
2022-10-15T01:27:43.617Z,95781.91
2022-10-15T01:28:30.268Z,95775.84
2022-10-15T01:29:11.021Z,95779.28
2022-10-15T01:30:18.015Z,95784.22
2022-10-15T01:31:30.297Z,95777.84
2022-10-15T01:32:26.348Z,95778.50
2022-10-15T01:33:34.702Z,95779.63
2022-10-15T01:34:24.222Z,95775.09
2022-10-15T01:35:07.922Z,95769.25
2022-10-15T01:35:49.917Z,95779.94
2022-10-15T01:36:38.077Z,95771.94
2022-10-15T01:37:18.309Z,95773.47
2022-10-15T01:38:22.871Z,95769.31
2022-10-15T01:39:01.467Z,95769.63
2022-10-15T01:39:42.021Z,95765.75
2022-10-15T01:40:23.680Z,95773.09
2022-10-15T01:41:00.072Z,95770.72
2022-10-15T01:41:58.277Z,95771.06
2022-10-15T01:42:39.073Z,95767.69
2022-10-15T01:43:15.875Z,95770.03
2022-10-15T01:44:29.801Z,95765.00
2022-10-15T01:45:26.200Z,95768.84
2022-10-15T01:46:28.134Z,95763.06
2022-10-15T01:47:27.924Z,95758.56
2022-10-15T01:48:04.896Z,95754.63
2022-10-15T01:48:38.685Z,95756.53
2022-10-15T01:49:13.545Z,95759.25
2022-10-15T01:49:47.051Z,95759.66
2022-10-15T01:50:22.904Z,95752.03
2022-10-15T01:50:59.713Z,95753.16
2022-10-15T01:51:34.643Z,95756.66
2022-10-15T01:52:16.235Z,95746.28
2022-10-15T01:52:50.478Z,95751.19
2022-10-15T01:53:26.728Z,95748.97
2022-10-15T01:54:00.191Z,95752.78
2022-10-15T01:54:32.686Z,95749.69
2022-10-15T01:55:08.908Z,95750.41
2022-10-15T01:55:44.068Z,95743.94
2022-10-15T01:56:21.607Z,95751.56
2022-10-15T01:56:55.098Z,95749.69
2022-10-15T01:57:30.454Z,95748.16
2022-10-15T01:58:05.600Z,95744.72
2022-10-15T01:58:46.551Z,95745.84
2022-10-15T01:59:26.635Z,95743.19
2022-10-15T01:59:59.272Z,95743.22
2022-10-15T02:00:31.264Z,95740.16
2022-10-15T02:01:07.233Z,95731.31
2022-10-15T02:02:21.152Z,95738.97
2022-10-15T02:02:54.160Z,95737.06
2022-10-15T02:03:26.649Z,95735.16
2022-10-15T02:03:59.100Z,95732.47
2022-10-15T02:04:32.633Z,95734.38
2022-10-15T02:05:07.408Z,95732.06
2022-10-15T02:05:48.416Z,95731.28
2022-10-15T02:06:30.692Z,95736.66
2022-10-15T02:07:28.302Z,95732.81
2022-10-15T02:08:03.165Z,95734.38
2022-10-15T02:09:01.941Z,95734.34
2022-10-15T02:09:57.110Z,95742.09
2022-10-15T02:10:47.525Z,95732.06
2022-10-15T02:11:19.923Z,95735.91
2022-10-15T02:12:17.019Z,95730.53
2022-10-15T02:12:59.015Z,95739.72
2022-10-15T02:13:40.305Z,95733.91
2022-10-15T02:14:20.206Z,95737.75
2022-10-15T02:15:01.512Z,95736.22
2022-10-15T02:15:55.683Z,95732.81
2022-10-15T02:16:27.629Z,95734.22
2022-10-15T02:17:08.777Z,95733.13
2022-10-15T02:18:06.429Z,95730.81
2022-10-15T02:18:54.202Z,95738.53
2022-10-15T02:19:32.254Z,95724.72
2022-10-15T02:20:09.554Z,95725.03
2022-10-15T02:21:16.416Z,95729.75
2022-10-15T02:22:03.640Z,95727.44
2022-10-15T02:22:50.675Z,95732.06
2022-10-15T02:23:28.418Z,95728.59
2022-10-15T02:24:17.768Z,95722.38
2022-10-15T02:24:58.825Z,95733.97
2022-10-15T02:25:33.739Z,95734.75
2022-10-15T02:26:08.764Z,95736.66
2022-10-15T02:26:42.555Z,95727.06
2022-10-15T02:27:16.522Z,95729.75
2022-10-15T02:27:50.943Z,95732.75
2022-10-15T02:28:26.345Z,95736.22
2022-10-15T02:29:00.929Z,95729.25
2022-10-15T02:29:37.278Z,95733.91
2022-10-15T02:30:10.928Z,95733.13
2022-10-15T02:30:48.342Z,95734.69
2022-10-15T02:31:22.842Z,95728.59
2022-10-15T02:31:56.977Z,95727.44
2022-10-15T02:32:31.710Z,95735.50
2022-10-15T02:33:04.040Z,95726.59
2022-10-15T02:33:37.903Z,95725.84
2022-10-15T02:34:15.624Z,95726.97
2022-10-15T02:34:50.131Z,95722.38
2022-10-15T02:35:23.845Z,95731.28
2022-10-15T02:35:58.087Z,95725.50
2022-10-15T02:36:30.621Z,95723.56
2022-10-15T02:37:07.152Z,95730.13
2022-10-15T02:37:44.558Z,95727.81
2022-10-15T02:38:19.823Z,95719.66
2022-10-15T02:38:54.589Z,95725.09
2022-10-15T02:39:26.655Z,95725.88
2022-10-15T02:39:58.628Z,95716.63
2022-10-15T02:40:33.882Z,95720.44
2022-10-15T02:41:09.031Z,95725.03
2022-10-15T02:41:41.902Z,95728.50
2022-10-15T02:42:18.565Z,95729.34
2022-10-15T02:42:53.327Z,95729.31
2022-10-15T02:43:25.243Z,95734.38
2022-10-15T02:43:57.318Z,95724.66
2022-10-15T02:44:29.608Z,95719.75
2022-10-15T02:45:01.522Z,95727.06
2022-10-15T02:45:33.778Z,95728.59
2022-10-15T02:46:07.962Z,95729.75
2022-10-15T02:46:41.972Z,95732.03
2022-10-15T02:47:15.736Z,95726.66
2022-10-15T02:47:47.988Z,95728.22
2022-10-15T02:48:19.867Z,95729.00
2022-10-15T02:48:52.865Z,95723.56
2022-10-15T02:49:24.734Z,95721.28
2022-10-15T02:49:56.635Z,95709.34
2022-10-15T02:50:28.682Z,95720.50
2022-10-15T02:51:00.544Z,95724.69
2022-10-15T02:51:37.432Z,95721.25
2022-10-15T02:52:09.602Z,95715.13
2022-10-15T02:52:41.611Z,95715.88
2022-10-15T02:53:13.346Z,95723.56
2022-10-15T02:53:47.457Z,95719.34
2022-10-15T02:54:19.264Z,95720.50
2022-10-15T02:54:52.584Z,95719.00
2022-10-15T02:55:24.487Z,95713.59
2022-10-15T02:55:56.709Z,95709.75
2022-10-15T02:57:02.492Z,95726.16
2022-10-15T02:57:34.737Z,95725.09
2022-10-15T02:58:07.848Z,95718.97
2022-10-15T02:58:39.707Z,95717.34
2022-10-15T02:59:12.829Z,95718.91
2022-10-15T02:59:44.696Z,95720.44
2022-10-15T03:00:18.435Z,95724.66
2022-10-15T03:00:51.184Z,95721.59
2022-10-15T03:01:23.252Z,95717.41
2022-10-15T03:01:55.619Z,95723.13
2022-10-15T03:02:28.095Z,95725.50
2022-10-15T03:03:00.150Z,95723.19
2022-10-15T03:03:32.120Z,95723.19
2022-10-15T03:04:04.608Z,95720.81
2022-10-15T03:04:37.016Z,95723.88
2022-10-15T03:05:09.266Z,95719.69
2022-10-15T03:05:43.148Z,95715.50
2022-10-15T03:06:15.612Z,95718.91
2022-10-15T03:06:47.652Z,95718.47
2022-10-15T03:07:19.607Z,95719.25
2022-10-15T03:07:52.277Z,95713.50
2022-10-15T03:08:24.176Z,95720.44
2022-10-15T03:08:56.063Z,95725.50
2022-10-15T03:09:28.937Z,95718.97
2022-10-15T03:10:00.840Z,95715.84
2022-10-15T03:10:33.037Z,95720.44
2022-10-15T03:11:05.743Z,95712.81
2022-10-15T03:11:39.100Z,95714.34
2022-10-15T03:12:11.746Z,95718.19
2022-10-15T03:12:43.533Z,95707.44
2022-10-15T03:13:16.680Z,95714.38
2022-10-15T03:13:53.618Z,95713.59
2022-10-15T03:14:26.183Z,95708.59
2022-10-15T03:14:58.058Z,95703.53
2022-10-15T03:15:30.597Z,95708.19
2022-10-15T03:16:06.730Z,95707.06
2022-10-15T03:16:39.730Z,95699.75
2022-10-15T03:17:11.663Z,95701.28
2022-10-15T03:17:43.988Z,95702.06
2022-10-15T03:18:16.040Z,95707.06
2022-10-15T03:18:48.193Z,95696.66
2022-10-15T03:19:21.082Z,95705.53
2022-10-15T03:19:53.468Z,95712.06
2022-10-15T03:20:26.864Z,95704.75
2022-10-15T03:20:59.877Z,95700.53
2022-10-15T03:21:32.631Z,95713.22
2022-10-15T03:22:12.195Z,95702.81
2022-10-15T03:22:53.896Z,95707.75
2022-10-15T03:23:26.226Z,95705.06
2022-10-15T03:24:07.818Z,95711.28
2022-10-15T03:24:39.658Z,95709.38
2022-10-15T03:25:12.139Z,95711.28
2022-10-15T03:25:44.363Z,95709.75
2022-10-15T03:26:22.383Z,95701.28
2022-10-15T03:26:55.424Z,95704.75
2022-10-15T03:27:27.397Z,95702.84
2022-10-15T03:27:59.419Z,95704.78
2022-10-15T03:28:39.649Z,95703.63
2022-10-15T03:29:11.570Z,95705.94
2022-10-15T03:29:49.639Z,95703.22
2022-10-15T03:30:21.604Z,95706.28
2022-10-15T03:30:54.662Z,95712.09
2022-10-15T03:31:27.436Z,95702.84
2022-10-15T03:32:01.678Z,95708.22
2022-10-15T03:32:36.144Z,95691.69
2022-10-15T03:33:09.751Z,95704.00
2022-10-15T03:33:41.579Z,95708.22
2022-10-15T03:34:13.547Z,95704.00
2022-10-15T03:34:45.989Z,95703.63
2022-10-15T03:35:19.860Z,95706.69
2022-10-15T03:35:53.101Z,95705.91
2022-10-15T03:36:32.294Z,95702.84
2022-10-15T03:37:05.404Z,95714.41
2022-10-15T03:37:37.267Z,95710.13
2022-10-15T03:38:11.092Z,95702.84
2022-10-15T03:38:43.231Z,95698.25
2022-10-15T03:39:18.648Z,95705.56
2022-10-15T03:39:50.890Z,95706.31
2022-10-15T03:40:23.859Z,95705.94
2022-10-15T03:40:59.438Z,95705.91
2022-10-15T03:41:39.509Z,95713.22
2022-10-15T03:42:11.486Z,95710.16
2022-10-15T03:42:52.804Z,95705.91
2022-10-15T03:43:28.625Z,95709.38
2022-10-15T03:44:06.343Z,95700.56
2022-10-15T03:44:40.203Z,95708.22
2022-10-15T03:45:16.137Z,95710.13
2022-10-15T03:45:48.024Z,95712.84
2022-10-15T03:46:24.569Z,95706.31
2022-10-15T03:46:56.353Z,95701.31
2022-10-15T03:47:32.761Z,95704.03
2022-10-15T03:48:05.017Z,95700.94
2022-10-15T03:48:38.961Z,95708.63
2022-10-15T03:49:10.859Z,95712.06
2022-10-15T03:49:42.710Z,95712.44
2022-10-15T03:50:14.815Z,95710.53
2022-10-15T03:50:46.943Z,95708.25
2022-10-15T03:51:23.484Z,95708.22
2022-10-15T03:52:02.285Z,95708.22
2022-10-15T03:52:34.661Z,95719.34
2022-10-15T03:53:07.977Z,95711.69
2022-10-15T03:53:40.394Z,95712.88
2022-10-15T03:54:12.719Z,95709.78
2022-10-15T03:54:52.106Z,95717.88
2022-10-15T03:55:25.496Z,95711.72
2022-10-15T03:56:04.107Z,95717.84
2022-10-15T03:56:37.524Z,95707.09
2022-10-15T03:57:25.795Z,95713.63
2022-10-15T03:58:03.487Z,95716.31
2022-10-15T03:58:35.507Z,95717.47
2022-10-15T03:59:10.902Z,95707.84
2022-10-15T03:59:45.754Z,95713.63
2022-10-15T04:00:18.898Z,95714.38
2022-10-15T04:00:52.951Z,95709.00
2022-10-15T04:01:25.032Z,95707.88
2022-10-15T04:01:56.950Z,95705.94
2022-10-15T04:02:31.555Z,95703.59
2022-10-15T04:03:03.792Z,95709.00
2022-10-15T04:03:35.778Z,95710.16
2022-10-15T04:04:07.642Z,95711.31
2022-10-15T04:04:40.160Z,95713.22
2022-10-15T04:05:12.168Z,95708.22
2022-10-15T04:05:54.785Z,95715.91
2022-10-15T04:06:34.535Z,95699.03
2022-10-15T04:07:10.727Z,95707.47
2022-10-15T04:07:42.882Z,95701.69
2022-10-15T04:08:19.731Z,95703.63
2022-10-15T04:09:30.540Z,95695.94
2022-10-15T04:10:22.431Z,95702.47
2022-10-15T04:10:54.480Z,95709.41
2022-10-15T04:11:26.348Z,95709.03
2022-10-15T04:12:07.158Z,95702.47
2022-10-15T04:12:39.030Z,95697.88
2022-10-15T04:13:12.722Z,95702.47
2022-10-15T04:13:50.274Z,95708.63
2022-10-15T04:14:22.239Z,95704.38
2022-10-15T04:14:54.299Z,95709.78
2022-10-15T04:15:27.985Z,95699.38
2022-10-15T04:16:05.935Z,95704.78
2022-10-15T04:16:37.959Z,95701.31
2022-10-15T04:17:21.751Z,95707.09
2022-10-15T04:17:55.562Z,95700.94
2022-10-15T04:18:28.878Z,95709.78
2022-10-15T04:19:01.526Z,95704.41
2022-10-15T04:19:33.577Z,95708.25
2022-10-15T04:20:09.397Z,95703.63
2022-10-15T04:20:42.681Z,95712.09
2022-10-15T04:21:19.787Z,95703.22
2022-10-15T04:21:56.812Z,95711.31
2022-10-15T04:22:39.013Z,95706.34
2022-10-15T04:23:13.044Z,95710.94
2022-10-15T04:23:48.637Z,95715.94
2022-10-15T04:24:31.874Z,95715.94
2022-10-15T04:25:04.273Z,95716.34
2022-10-15T04:25:39.335Z,95707.09
2022-10-15T04:26:12.815Z,95704.38
2022-10-15T04:26:44.828Z,95704.78
2022-10-15T04:27:17.213Z,95709.78
2022-10-15T04:27:49.707Z,95709.00
2022-10-15T04:28:23.494Z,95708.63
2022-10-15T04:28:55.376Z,95707.47
2022-10-15T04:29:28.636Z,95707.47
2022-10-15T04:30:14.375Z,95716.31
2022-10-15T04:31:06.278Z,95704.78
2022-10-15T04:31:39.528Z,95722.09
2022-10-15T04:32:16.220Z,95712.47
2022-10-15T04:32:52.232Z,95717.06
2022-10-15T04:33:24.782Z,95723.22
2022-10-15T04:34:00.347Z,95720.16
2022-10-15T04:34:32.945Z,95717.47
2022-10-15T04:35:06.008Z,95720.53
2022-10-15T04:36:07.239Z,95720.56
2022-10-15T04:36:56.329Z,95721.31
2022-10-15T04:37:29.331Z,95724.03
2022-10-15T04:38:01.528Z,95719.41
2022-10-15T04:38:49.633Z,95720.91
2022-10-15T04:39:30.771Z,95723.22
2022-10-15T04:40:04.978Z,95719.41
2022-10-15T04:40:37.306Z,95722.84
2022-10-15T04:41:11.778Z,95724.38
2022-10-15T04:42:04.113Z,95720.56
2022-10-15T04:42:38.024Z,95725.16
2022-10-15T04:43:09.980Z,95727.47
2022-10-15T04:43:41.935Z,95732.09
2022-10-15T04:44:16.240Z,95725.16
2022-10-15T04:44:54.010Z,95730.56
2022-10-15T04:45:25.951Z,95727.09
2022-10-15T04:46:00.482Z,95732.09
2022-10-15T04:46:32.716Z,95732.09
2022-10-15T04:47:10.196Z,95735.53
2022-10-15T04:47:47.607Z,95735.94
2022-10-15T04:48:21.468Z,95735.19
2022-10-15T04:48:57.748Z,95740.16
2022-10-15T04:49:29.752Z,95732.84
2022-10-15T04:50:02.062Z,95729.38
2022-10-15T04:50:52.502Z,95739.78
2022-10-15T04:51:27.102Z,95737.09
2022-10-15T04:52:09.594Z,95734.41
2022-10-15T04:52:59.733Z,95742.84
2022-10-15T04:53:33.803Z,95740.94
2022-10-15T04:54:06.004Z,95748.25
2022-10-15T04:54:38.046Z,95739.78
2022-10-15T04:55:10.659Z,95739.03
2022-10-15T04:55:44.075Z,95742.50
2022-10-15T04:56:19.917Z,95750.56
2022-10-15T04:56:51.925Z,95740.94
2022-10-15T04:57:23.979Z,95733.63
2022-10-15T04:57:55.959Z,95733.63
2022-10-15T04:58:34.428Z,95722.84
2022-10-15T04:59:08.126Z,95734.41
2022-10-15T04:59:52.558Z,95743.25
2022-10-15T05:00:39.423Z,95738.25
2022-10-15T05:01:46.912Z,95744.78
2022-10-15T05:02:20.499Z,95741.69
2022-10-15T05:02:58.481Z,95740.56
2022-10-15T05:03:45.216Z,95734.41
2022-10-15T05:04:17.515Z,95748.63
2022-10-15T05:04:51.152Z,95737.47
2022-10-15T05:05:23.233Z,95744.03
2022-10-15T05:06:03.220Z,95746.72
2022-10-15T05:06:35.434Z,95749.03
2022-10-15T05:07:20.310Z,95744.00
2022-10-15T05:07:53.445Z,95744.78
2022-10-15T05:08:25.305Z,95752.50
2022-10-15T05:09:24.397Z,95750.56
2022-10-15T05:09:57.244Z,95751.31
2022-10-15T05:10:29.946Z,95745.19
2022-10-15T05:11:07.896Z,95743.25
2022-10-15T05:11:39.947Z,95750.16
2022-10-15T05:12:16.916Z,95757.47
2022-10-15T05:12:51.466Z,95752.09
2022-10-15T05:13:40.515Z,95753.63
2022-10-15T05:14:13.346Z,95754.00
2022-10-15T05:14:45.294Z,95746.69
2022-10-15T05:15:26.184Z,95756.69
2022-10-15T05:16:08.221Z,95746.69
2022-10-15T05:16:40.537Z,95757.84
2022-10-15T05:17:12.655Z,95754.03
2022-10-15T05:17:46.098Z,95750.56
2022-10-15T05:18:17.903Z,95754.41
2022-10-15T05:18:58.958Z,95761.34
2022-10-15T05:19:31.830Z,95752.84
2022-10-15T05:20:05.217Z,95758.63
2022-10-15T05:20:37.143Z,95754.78
2022-10-15T05:21:09.386Z,95765.56
2022-10-15T05:21:41.804Z,95755.94
2022-10-15T05:22:20.407Z,95758.25
2022-10-15T05:22:57.091Z,95763.63
2022-10-15T05:23:34.518Z,95760.56
2022-10-15T05:24:19.646Z,95762.09
2022-10-15T05:25:14.496Z,95769.41
2022-10-15T05:25:51.591Z,95764.78
2022-10-15T05:26:29.630Z,95769.03
2022-10-15T05:27:03.036Z,95772.09
2022-10-15T05:27:37.909Z,95761.34
2022-10-15T05:28:10.734Z,95766.72
2022-10-15T05:28:43.796Z,95760.94
2022-10-15T05:29:20.122Z,95767.09
2022-10-15T05:29:52.153Z,95768.63
2022-10-15T05:30:23.928Z,95765.19
2022-10-15T05:31:05.303Z,95767.84
2022-10-15T05:31:37.203Z,95769.41
2022-10-15T05:32:14.447Z,95770.19
2022-10-15T05:32:46.350Z,95772.50
2022-10-15T05:33:22.332Z,95772.50
2022-10-15T05:33:54.266Z,95771.31
2022-10-15T05:34:35.414Z,95779.78
2022-10-15T05:35:16.342Z,95775.19
2022-10-15T05:36:11.991Z,95765.94
2022-10-15T05:36:43.942Z,95776.34
2022-10-15T05:37:15.890Z,95777.50
2022-10-15T05:37:49.625Z,95779.03
2022-10-15T05:38:22.505Z,95780.56
2022-10-15T05:38:59.935Z,95780.94
2022-10-15T05:39:31.982Z,95778.63
2022-10-15T05:40:05.184Z,95776.31
2022-10-15T05:40:37.708Z,95777.50
2022-10-15T05:41:12.463Z,95777.47
2022-10-15T05:41:44.479Z,95779.78
2022-10-15T05:42:16.410Z,95772.09
2022-10-15T05:42:56.465Z,95784.00
2022-10-15T05:43:28.481Z,95783.63
2022-10-15T05:44:03.043Z,95787.88
2022-10-15T05:44:35.551Z,95790.94
2022-10-15T05:45:08.224Z,95788.25
2022-10-15T05:45:40.213Z,95788.25
2022-10-15T05:46:12.113Z,95789.81
2022-10-15T05:46:44.061Z,95794.00
2022-10-15T05:47:21.965Z,95795.16
2022-10-15T05:47:55.909Z,95802.88
2022-10-15T05:48:28.406Z,95794.41
2022-10-15T05:49:00.358Z,95797.09
2022-10-15T05:49:33.433Z,95796.34
2022-10-15T05:50:31.848Z,95798.63
2022-10-15T05:51:12.807Z,95803.63
2022-10-15T05:51:45.256Z,95802.50
2022-10-15T05:52:24.219Z,95800.59
2022-10-15T05:53:17.255Z,95809.03
2022-10-15T05:53:53.116Z,95811.72
2022-10-15T05:54:25.019Z,95809.06
2022-10-15T05:54:56.829Z,95805.97
2022-10-15T05:55:28.594Z,95810.97
2022-10-15T05:56:00.711Z,95806.72
2022-10-15T05:56:36.172Z,95802.13
2022-10-15T05:57:08.450Z,95809.03
2022-10-15T05:57:40.384Z,95799.81
2022-10-15T05:58:12.277Z,95811.38
2022-10-15T05:58:44.166Z,95804.03
2022-10-15T05:59:16.050Z,95809.03
2022-10-15T05:59:47.933Z,95807.50
2022-10-15T06:00:19.710Z,95811.34
2022-10-15T06:00:59.175Z,95816.72
2022-10-15T06:01:31.016Z,95812.88
2022-10-15T06:02:03.208Z,95804.44
2022-10-15T06:02:35.198Z,95805.22
2022-10-15T06:03:07.159Z,95812.91
2022-10-15T06:03:41.028Z,95806.78
2022-10-15T06:04:12.887Z,95807.91
2022-10-15T06:04:48.709Z,95810.59
2022-10-15T06:05:20.534Z,95816.34
2022-10-15T06:05:52.690Z,95815.22
2022-10-15T06:06:26.505Z,95810.22
2022-10-15T06:07:00.375Z,95812.88
2022-10-15T06:07:32.594Z,95812.13
2022-10-15T06:08:07.958Z,95812.13
2022-10-15T06:08:39.883Z,95815.22
2022-10-15T06:09:11.762Z,95818.28
2022-10-15T06:09:43.653Z,95812.91
2022-10-15T06:10:16.344Z,95811.75
2022-10-15T06:10:48.762Z,95820.59
2022-10-15T06:11:21.099Z,95812.88
2022-10-15T06:11:53.244Z,95810.59
2022-10-15T06:12:27.977Z,95815.19
2022-10-15T06:13:00.166Z,95810.22
2022-10-15T06:13:32.022Z,95816.34
2022-10-15T06:14:04.198Z,95817.53
2022-10-15T06:14:36.057Z,95816.75
2022-10-15T06:15:10.250Z,95809.41
2022-10-15T06:15:49.021Z,95818.28
2022-10-15T06:16:29.899Z,95820.97
2022-10-15T06:17:04.266Z,95821.38
2022-10-15T06:17:36.661Z,95817.91
2022-10-15T06:18:09.664Z,95813.66
2022-10-15T06:18:41.589Z,95821.00
2022-10-15T06:19:15.228Z,95819.81
2022-10-15T06:19:47.161Z,95825.19
2022-10-15T06:20:18.993Z,95823.69
2022-10-15T06:20:52.825Z,95826.00
2022-10-15T06:21:24.661Z,95828.31
2022-10-15T06:21:56.490Z,95826.00
2022-10-15T06:22:31.158Z,95824.44
2022-10-15T06:23:05.396Z,95822.13
2022-10-15T06:23:37.545Z,95832.53
2022-10-15T06:24:10.232Z,95819.06
2022-10-15T06:24:42.202Z,95827.91
2022-10-15T06:25:14.355Z,95829.81
2022-10-15T06:25:46.219Z,95829.06
2022-10-15T06:26:18.031Z,95830.63
2022-10-15T06:26:53.037Z,95826.00
2022-10-15T06:27:25.243Z,95829.06
2022-10-15T06:28:02.566Z,95832.94
2022-10-15T06:28:44.607Z,95836.00
2022-10-15T06:29:16.612Z,95830.25
2022-10-15T06:29:48.605Z,95837.94
2022-10-15T06:30:21.131Z,95838.69
2022-10-15T06:30:52.961Z,95837.91
2022-10-15T06:31:25.160Z,95839.47
2022-10-15T06:31:57.063Z,95838.31
2022-10-15T06:32:28.882Z,95847.94
2022-10-15T06:33:00.906Z,95841.41
2022-10-15T06:33:33.249Z,95841.41
2022-10-15T06:34:05.264Z,95844.06
2022-10-15T06:34:37.546Z,95852.91
2022-10-15T06:35:09.752Z,95844.84
2022-10-15T06:35:41.836Z,95838.31
2022-10-15T06:36:13.951Z,95851.41
2022-10-15T06:36:45.845Z,95847.16
2022-10-15T06:37:17.784Z,95842.94
2022-10-15T06:37:49.757Z,95834.47
2022-10-15T06:38:21.728Z,95842.19
2022-10-15T06:38:53.639Z,95844.06
2022-10-15T06:39:25.496Z,95851.38
2022-10-15T06:39:57.628Z,95843.28
2022-10-15T06:40:30.509Z,95844.44
2022-10-15T06:41:11.688Z,95849.06
2022-10-15T06:41:43.756Z,95853.31
2022-10-15T06:42:19.677Z,95849.47
2022-10-15T06:42:53.081Z,95846.72
2022-10-15T06:43:25.104Z,95845.19
2022-10-15T06:43:56.967Z,95850.19
2022-10-15T06:44:28.923Z,95853.69
2022-10-15T06:45:00.772Z,95845.59
2022-10-15T06:45:32.656Z,95854.88
2022-10-15T06:46:05.973Z,95852.13
2022-10-15T06:46:38.521Z,95850.63
2022-10-15T06:47:10.362Z,95851.41
2022-10-15T06:47:42.443Z,95860.66
2022-10-15T06:48:14.278Z,95854.88
2022-10-15T06:48:46.143Z,95852.56
2022-10-15T06:49:18.020Z,95857.16
2022-10-15T06:49:51.951Z,95858.25
2022-10-15T06:50:24.111Z,95858.69
2022-10-15T06:51:01.313Z,95860.63
2022-10-15T06:51:33.294Z,95857.91
2022-10-15T06:52:06.100Z,95856.75
2022-10-15T06:52:38.684Z,95872.97
2022-10-15T06:53:10.516Z,95858.31
2022-10-15T06:53:43.817Z,95856.00
2022-10-15T06:54:15.610Z,95860.59
2022-10-15T06:54:47.412Z,95865.25
2022-10-15T06:55:19.243Z,95871.41
2022-10-15T06:55:51.053Z,95872.56
2022-10-15T06:56:22.962Z,95881.03
2022-10-15T06:56:55.804Z,95881.06
2022-10-15T06:57:28.763Z,95872.56
2022-10-15T06:58:00.934Z,95871.81
2022-10-15T06:58:34.337Z,95873.72
2022-10-15T06:59:06.268Z,95869.84
2022-10-15T06:59:41.195Z,95879.50
2022-10-15T07:00:13.975Z,95872.59
2022-10-15T07:00:45.835Z,95879.50
2022-10-15T07:01:17.714Z,95882.56
2022-10-15T07:01:49.509Z,95882.19
2022-10-15T07:02:21.975Z,95880.66
2022-10-15T07:02:54.214Z,95883.75
2022-10-15T07:03:26.152Z,95881.41